createdAt,value
2018-03-23T00:00:52.934Z,22.67
2018-03-23T00:03:23.208Z,21.15
2018-03-23T00:05:51.150Z,19.90
2018-03-23T00:08:17.834Z,19.60
2018-03-23T00:10:44.174Z,17.95
2018-03-23T00:13:11.953Z,18.40
2018-03-23T00:15:39.072Z,18.35
2018-03-23T00:18:06.173Z,18.17
2018-03-23T00:20:32.881Z,18.77
2018-03-23T00:23:00.739Z,18.77
2018-03-23T00:25:27.008Z,18.63
2018-03-23T00:27:53.991Z,21.37
2018-03-23T00:30:20.694Z,21.00
2018-03-23T00:32:47.604Z,21.63
2018-03-23T00:35:14.745Z,21.87
2018-03-23T00:37:42.515Z,24.40
2018-03-23T00:40:12.661Z,20.93
2018-03-23T00:52:24.961Z,20.08
2018-03-23T00:54:51.428Z,19.07
2018-03-23T00:57:17.659Z,23.00
2018-03-23T00:59:45.791Z,21.10
2018-03-23T01:02:12.074Z,21.07
2018-03-23T01:04:39.183Z,21.70
2018-03-23T01:07:06.395Z,20.03
2018-03-23T01:09:32.683Z,20.15
2018-03-23T01:11:58.943Z,19.83
2018-03-23T01:14:25.949Z,18.87
2018-03-23T01:16:52.302Z,19.57
2018-03-23T01:19:19.542Z,21.37
2018-03-23T01:21:46.130Z,19.37
2018-03-23T01:24:12.389Z,20.17
2018-03-23T01:26:39.332Z,20.03
2018-03-23T01:29:05.551Z,20.43
2018-03-23T01:31:31.773Z,19.30
2018-03-23T01:33:58.013Z,20.73
2018-03-23T01:36:24.246Z,19.50
2018-03-23T01:38:51.485Z,20.00
2018-03-23T01:41:18.175Z,19.70
2018-03-23T01:43:44.372Z,20.10
2018-03-23T01:46:10.671Z,18.67
2018-03-23T01:48:38.047Z,20.03
2018-03-23T01:51:04.474Z,19.43
2018-03-23T01:53:43.778Z,22.57
2018-03-23T01:56:11.537Z,22.70
2018-03-23T01:58:37.793Z,21.20
2018-03-23T02:01:04.758Z,19.50
2018-03-23T02:03:30.925Z,19.33
2018-03-23T02:05:58.198Z,18.03
2018-03-23T02:08:24.443Z,18.17
2018-03-23T02:10:51.450Z,21.47
2018-03-23T02:13:18.537Z,17.95
2018-03-23T02:15:45.484Z,20.30
2018-03-23T02:18:12.472Z,16.83
2018-03-23T02:20:39.242Z,19.67
2018-03-23T02:23:05.501Z,18.50
2018-03-23T02:25:34.377Z,18.47
2018-03-23T02:28:00.959Z,19.20
2018-03-23T02:30:28.127Z,17.73
2018-03-23T02:32:55.089Z,18.37
2018-03-23T02:35:22.250Z,20.07
2018-03-23T02:37:48.560Z,19.50
2018-03-23T02:40:16.492Z,20.77
2018-03-23T02:42:42.746Z,20.97
2018-03-23T02:45:08.951Z,22.97
2018-03-23T02:47:35.240Z,23.90
2018-03-23T02:50:01.543Z,22.63
2018-03-23T02:52:30.445Z,22.70
2018-03-23T02:54:57.493Z,25.02
2018-03-23T02:57:26.102Z,23.60
2018-03-23T02:59:52.765Z,22.87
2018-03-23T03:02:19.000Z,24.00
2018-03-23T03:04:46.999Z,25.00
2018-03-23T03:07:13.204Z,23.60
2018-03-23T03:09:39.472Z,23.53
2018-03-23T03:12:05.787Z,23.87
2018-03-23T03:14:32.035Z,22.20
2018-03-23T03:16:58.487Z,24.00
2018-03-23T03:19:24.724Z,20.83
2018-03-23T03:21:51.706Z,21.73
2018-03-23T03:24:18.689Z,21.47
2018-03-23T03:26:44.933Z,23.23
2018-03-23T03:29:12.203Z,23.40
2018-03-23T03:31:39.483Z,24.30
2018-03-23T03:34:07.274Z,22.90
2018-03-23T03:36:33.438Z,24.30
2018-03-23T03:38:59.691Z,23.97
2018-03-23T03:41:26.692Z,22.40
2018-03-23T03:43:53.843Z,26.30
2018-03-23T03:46:20.974Z,21.47
2018-03-23T03:48:50.650Z,23.30
2018-03-23T03:51:17.705Z,22.23
2018-03-23T03:53:44.663Z,22.30
2018-03-23T03:56:11.051Z,24.48
2018-03-23T03:58:37.328Z,23.90
2018-03-23T04:01:05.118Z,23.13
2018-03-23T04:03:32.209Z,21.53
2018-03-23T04:05:59.235Z,24.40
2018-03-23T04:08:26.252Z,25.37
2018-03-23T04:10:52.530Z,23.37
2018-03-23T04:13:18.754Z,25.07
2018-03-23T04:15:45.489Z,24.83
2018-03-23T04:18:12.742Z,25.30
2018-03-23T04:20:40.343Z,24.10
2018-03-23T04:23:07.369Z,26.45
2018-03-23T04:25:34.179Z,24.35
2018-03-23T04:28:00.369Z,22.35
2018-03-23T04:30:26.633Z,23.70
2018-03-23T04:32:54.195Z,26.00
2018-03-23T04:35:20.918Z,23.67
2018-03-23T04:37:48.280Z,20.83
2018-03-23T04:40:14.569Z,20.53
2018-03-23T04:42:41.572Z,22.60
2018-03-23T04:45:08.358Z,22.23
2018-03-23T04:47:34.577Z,22.00
2018-03-23T04:50:00.866Z,20.30
2018-03-23T04:52:29.916Z,20.57
2018-03-23T04:54:56.958Z,21.97
2018-03-23T04:57:23.183Z,22.80
2018-03-23T04:59:49.802Z,21.83
2018-03-23T05:02:16.018Z,22.80
2018-03-23T05:04:42.255Z,22.00
2018-03-23T05:07:11.351Z,23.70
2018-03-23T05:09:37.562Z,24.70
2018-03-23T05:12:03.784Z,24.77
2018-03-23T05:14:30.515Z,24.47
2018-03-23T05:16:58.691Z,25.03
2018-03-23T05:19:24.927Z,25.08
2018-03-23T05:21:51.159Z,25.30
2018-03-23T05:24:17.469Z,27.50
2018-03-23T05:26:43.676Z,27.37
2018-03-23T05:29:10.661Z,28.48
2018-03-23T05:31:37.735Z,27.37
2018-03-23T05:34:05.471Z,29.10
2018-03-23T05:36:32.466Z,29.25
2018-03-23T05:38:58.691Z,27.43
2018-03-23T05:41:24.917Z,27.10
2018-03-23T05:43:53.398Z,25.20
2018-03-23T05:46:20.489Z,27.30
2018-03-23T05:48:48.478Z,28.70
2018-03-23T05:51:14.762Z,28.73
2018-03-23T05:53:40.987Z,26.53
2018-03-23T05:56:08.224Z,28.40
2018-03-23T05:58:34.858Z,25.30
2018-03-23T06:01:01.101Z,24.13
2018-03-23T06:03:28.171Z,26.10
2018-03-23T06:05:56.081Z,26.40
2018-03-23T06:08:22.347Z,27.30
2018-03-23T06:10:48.611Z,27.37
2018-03-23T06:13:14.912Z,25.57
2018-03-23T06:15:41.767Z,27.23
2018-03-23T06:18:09.163Z,25.80
2018-03-23T06:20:35.358Z,24.47
2018-03-23T06:23:02.340Z,25.17
2018-03-23T06:25:29.187Z,24.20
2018-03-23T06:27:55.477Z,24.77
2018-03-23T06:30:22.418Z,27.03
2018-03-23T06:32:48.992Z,27.43
2018-03-23T06:35:15.986Z,27.40
2018-03-23T06:37:42.290Z,27.33
2018-03-23T06:40:08.530Z,28.30
2018-03-23T06:42:35.039Z,24.37
2018-03-23T06:45:01.265Z,25.73
2018-03-23T06:47:29.276Z,26.70
2018-03-23T06:49:56.072Z,26.83
2018-03-23T06:52:23.141Z,25.23
2018-03-23T06:54:49.450Z,24.63
2018-03-23T06:57:15.660Z,24.93
2018-03-23T06:59:43.876Z,26.40
2018-03-23T07:02:12.776Z,24.97
2018-03-23T07:04:41.489Z,25.90
2018-03-23T07:07:07.778Z,25.17
2018-03-23T07:09:35.833Z,28.23
2018-03-23T07:12:03.111Z,26.77
2018-03-23T07:27:31.459Z,25.58
2018-03-23T07:29:57.702Z,25.12
2018-03-23T07:32:24.838Z,25.60
2018-03-23T07:34:51.460Z,26.80
2018-03-23T07:37:18.486Z,29.63
2018-03-23T07:39:45.120Z,26.23
2018-03-23T07:42:12.974Z,28.70
2018-03-23T07:44:39.288Z,30.50
2018-03-23T07:47:05.555Z,27.87
2018-03-23T07:49:31.733Z,26.70
2018-03-23T07:51:58.614Z,29.80
2018-03-23T07:54:24.888Z,26.30
2018-03-23T07:56:51.770Z,30.03
2018-03-23T07:59:19.039Z,30.20
2018-03-23T08:01:45.593Z,29.53
2018-03-23T08:04:12.580Z,28.03
2018-03-23T08:06:39.921Z,27.13
2018-03-23T08:09:06.309Z,25.77
2018-03-23T08:11:34.613Z,28.70
2018-03-23T08:14:02.422Z,27.33
2018-03-23T08:16:28.770Z,29.57
2018-03-23T08:18:55.098Z,27.00
2018-03-23T08:21:23.417Z,26.43
2018-03-23T08:23:50.684Z,28.10
2018-03-23T08:26:19.636Z,26.47
2018-03-23T08:28:46.704Z,24.70
2018-03-23T08:31:14.973Z,25.53
2018-03-23T08:33:41.317Z,26.10
2018-03-23T08:36:08.650Z,24.60
2018-03-23T08:38:36.391Z,25.23
2018-03-23T08:41:02.714Z,26.33
2018-03-23T08:43:28.992Z,24.87
2018-03-23T08:45:55.342Z,22.57
2018-03-23T08:48:21.658Z,22.10
2018-03-23T08:50:48.763Z,22.90
2018-03-23T08:53:18.022Z,21.57
2018-03-23T08:55:45.067Z,23.40
2018-03-23T08:58:12.086Z,21.80
2018-03-23T09:00:39.307Z,23.13
2018-03-23T09:03:07.118Z,23.63
2018-03-23T09:05:33.520Z,23.73
2018-03-23T09:07:59.811Z,24.10
2018-03-23T09:10:26.935Z,25.40
2018-03-23T09:12:53.250Z,25.20
2018-03-23T09:15:19.574Z,24.63
2018-03-23T09:17:47.836Z,23.87
2018-03-23T09:20:14.088Z,22.27
2018-03-23T09:22:41.888Z,24.93
2018-03-23T09:25:08.868Z,22.50
2018-03-23T09:27:35.068Z,22.83
2018-03-23T09:30:02.590Z,22.20
2018-03-23T09:32:30.659Z,22.80
2018-03-23T09:34:57.619Z,22.20
2018-03-23T09:37:25.688Z,21.13
2018-03-23T09:39:51.874Z,23.60
2018-03-23T09:42:18.732Z,20.27
2018-03-23T09:44:47.493Z,20.00
2018-03-23T09:47:16.262Z,18.20
2018-03-23T09:49:43.651Z,19.27
2018-03-23T09:52:10.967Z,18.23
2018-03-23T09:54:38.366Z,17.70
2018-03-23T09:57:04.650Z,18.37
2018-03-23T09:59:31.658Z,19.87
2018-03-23T10:01:57.924Z,19.00
2018-03-23T10:04:25.721Z,19.30
2018-03-23T10:06:52.969Z,18.90
2018-03-23T10:09:21.853Z,18.77
2018-03-23T10:11:49.736Z,18.00
2018-03-23T10:14:16.951Z,19.53
2018-03-23T10:16:43.995Z,21.87
2018-03-23T10:19:11.037Z,23.30
2018-03-23T10:21:39.009Z,22.67
2018-03-23T10:24:06.174Z,23.87
2018-03-23T10:26:33.220Z,22.87
2018-03-23T10:28:59.593Z,23.00
2018-03-23T10:31:26.514Z,21.83
2018-03-23T10:33:54.459Z,22.13
2018-03-23T10:36:21.745Z,22.80
2018-03-23T10:38:49.504Z,22.50
2018-03-23T10:41:16.507Z,22.60
2018-03-23T10:43:44.029Z,21.40
2018-03-23T10:46:10.290Z,23.13
2018-03-23T10:48:38.515Z,21.97
2018-03-23T10:51:05.464Z,21.57
2018-03-23T10:53:32.576Z,20.87
2018-03-23T10:55:59.208Z,21.90
2018-03-23T10:58:25.501Z,19.93
2018-03-23T11:00:59.578Z,20.87
2018-03-23T11:03:28.218Z,21.33
2018-03-23T11:05:54.661Z,20.00
2018-03-23T11:08:20.942Z,20.07
2018-03-23T11:10:47.193Z,19.60
2018-03-23T11:13:13.428Z,19.90
2018-03-23T11:15:40.567Z,18.70
2018-03-23T11:18:06.919Z,18.70
2018-03-23T11:20:33.193Z,18.13
2018-03-23T11:23:00.485Z,18.90
2018-03-23T11:25:26.711Z,19.77
2018-03-23T11:27:52.991Z,18.07
2018-03-23T11:30:19.308Z,19.50
2018-03-23T11:32:45.564Z,20.37
2018-03-23T11:35:11.848Z,19.00
2018-03-23T11:37:38.443Z,17.77
2018-03-23T11:40:05.440Z,18.23
2018-03-23T11:42:32.663Z,18.20
2018-03-23T11:44:59.914Z,17.43
2018-03-23T11:47:27.933Z,17.97
2018-03-23T11:49:54.671Z,17.37
2018-03-23T12:02:08.647Z,20.27
2018-03-23T12:04:34.944Z,20.00
2018-03-23T12:07:02.012Z,19.63
2018-03-23T12:09:28.978Z,19.53
2018-03-23T12:11:55.224Z,18.87
2018-03-23T12:14:21.492Z,17.83
2018-03-23T12:16:48.599Z,18.40
2018-03-23T12:19:15.878Z,18.53
2018-03-23T12:21:42.107Z,20.87
2018-03-23T12:24:08.382Z,18.10
2018-03-23T12:26:36.258Z,17.83
2018-03-23T12:29:03.043Z,18.43
2018-03-23T12:31:30.011Z,18.27
2018-03-23T12:33:57.999Z,18.60
2018-03-23T12:36:25.641Z,17.27
2018-03-23T12:38:53.616Z,20.00
2018-03-23T12:41:19.927Z,20.17
2018-03-23T12:43:47.266Z,19.00
2018-03-23T12:46:13.645Z,20.63
2018-03-23T12:48:40.756Z,21.13
2018-03-23T12:51:07.007Z,12.23
2018-03-23T12:53:33.279Z,12.30
2018-03-23T12:56:00.359Z,7.93
2018-03-23T12:58:26.599Z,9.53
2018-03-23T13:00:52.800Z,18.30
2018-03-23T13:03:19.124Z,15.13
2018-03-23T13:05:46.258Z,21.17
2018-03-23T13:08:13.240Z,23.10
2018-03-23T13:10:39.520Z,22.83
2018-03-23T13:13:05.811Z,23.67
2018-03-23T13:15:32.036Z,24.87
2018-03-23T13:17:58.340Z,26.87
2018-03-23T13:20:25.472Z,26.20
2018-03-23T13:22:52.476Z,24.23
2018-03-23T13:25:20.397Z,26.50
2018-03-23T13:27:48.209Z,25.57
2018-03-23T13:30:14.487Z,25.60
2018-03-23T13:32:41.428Z,25.10
2018-03-23T13:35:08.409Z,24.07
2018-03-23T13:37:34.772Z,23.60
2018-03-23T13:40:00.967Z,23.50
2018-03-23T13:42:27.331Z,22.80
2018-03-23T13:44:53.572Z,24.40
2018-03-23T13:47:19.813Z,24.13
2018-03-23T13:49:46.798Z,24.47
2018-03-23T13:52:14.132Z,23.73
2018-03-23T13:54:41.678Z,15.47
2018-03-23T13:57:07.999Z,20.73
2018-03-23T13:59:40.400Z,21.57
2018-03-23T14:02:07.471Z,21.60
2018-03-23T14:04:33.701Z,21.83
2018-03-23T14:06:59.942Z,22.77
2018-03-23T14:09:26.167Z,23.20
2018-03-23T14:11:52.445Z,23.50
2018-03-23T14:14:18.628Z,22.90
2018-03-23T14:16:44.838Z,22.93
2018-03-23T14:19:11.173Z,22.77
2018-03-23T14:21:37.371Z,22.83
2018-03-23T14:24:04.325Z,23.00
2018-03-23T14:26:31.278Z,25.40
2018-03-23T14:28:58.276Z,23.93
2018-03-23T14:31:24.678Z,23.13
2018-03-23T14:33:50.922Z,24.30
2018-03-23T14:36:17.164Z,24.37
2018-03-23T14:38:43.499Z,25.50
2018-03-23T14:41:09.746Z,23.50
2018-03-23T14:43:35.962Z,23.80
2018-03-23T14:46:02.221Z,24.50
2018-03-23T14:48:29.171Z,23.40
2018-03-23T14:50:56.112Z,24.40
2018-03-23T14:53:24.695Z,23.80
2018-03-23T14:55:51.843Z,22.30
2018-03-23T14:58:18.110Z,23.03
2018-03-23T15:00:44.974Z,25.20
2018-03-23T15:03:12.889Z,21.93
2018-03-23T15:05:39.828Z,20.20
2018-03-23T15:08:06.136Z,20.20
2018-03-23T15:10:32.360Z,20.80
2018-03-23T15:12:59.478Z,19.00
2018-03-23T15:15:25.703Z,18.10
2018-03-23T15:17:52.032Z,18.20
2018-03-23T15:20:18.283Z,18.90
2018-03-23T15:22:44.500Z,17.70
2018-03-23T15:25:10.795Z,18.30
2018-03-23T15:27:38.630Z,17.73
2018-03-23T15:30:06.422Z,18.57
2018-03-23T15:32:32.755Z,18.90
2018-03-23T15:34:59.754Z,17.30
2018-03-23T15:37:27.787Z,17.47
2018-03-23T15:39:54.750Z,18.03
2018-03-23T15:42:21.033Z,19.73
2018-03-23T15:44:48.180Z,18.23
2018-03-23T15:47:14.477Z,17.50
2018-03-23T15:49:40.712Z,18.50
2018-03-23T15:52:06.952Z,16.70
2018-03-23T15:54:33.174Z,18.60
2018-03-23T15:56:59.396Z,18.07
2018-03-23T15:59:25.724Z,18.73
2018-03-23T16:01:52.027Z,18.57
2018-03-23T16:04:18.795Z,18.57
2018-03-23T16:06:45.112Z,17.37
2018-03-23T16:09:12.197Z,19.40
2018-03-23T16:11:39.583Z,18.30
2018-03-23T16:14:07.727Z,19.03
2018-03-23T16:16:34.032Z,19.07
2018-03-23T16:19:00.344Z,17.20
2018-03-23T16:21:26.669Z,18.93
2018-03-23T16:23:54.671Z,13.67
2018-03-23T16:26:21.182Z,16.03
2018-03-23T16:28:48.498Z,14.97
2018-03-23T16:31:14.856Z,15.50
2018-03-23T16:43:26.190Z,15.03
2018-03-23T16:45:52.704Z,16.60
2018-03-23T16:48:19.830Z,15.20
2018-03-23T16:50:47.972Z,13.13
2018-03-23T16:53:14.954Z,15.17
2018-03-23T16:55:42.152Z,15.57
2018-03-23T16:58:08.460Z,15.10
2018-03-23T17:00:35.508Z,16.37
2018-03-23T17:03:03.467Z,15.83
2018-03-23T17:05:29.740Z,13.07
2018-03-23T17:07:57.710Z,13.90
2018-03-23T17:10:24.826Z,11.13
2018-03-23T17:12:51.106Z,12.00
2018-03-23T17:15:17.488Z,14.33
2018-03-23T17:17:44.328Z,14.97
2018-03-23T17:20:10.707Z,13.70
2018-03-23T17:22:37.858Z,12.93
2018-03-23T17:25:04.888Z,12.80
2018-03-23T17:27:31.983Z,14.30
2018-03-23T17:29:58.305Z,11.10
2018-03-23T17:32:24.599Z,10.67
2018-03-23T17:34:50.876Z,11.30
2018-03-23T17:37:17.986Z,11.80
2018-03-23T17:39:45.410Z,11.80
2018-03-23T17:42:11.766Z,10.40
2018-03-23T17:44:38.173Z,13.37
2018-03-23T17:47:04.496Z,12.47
2018-03-23T17:49:31.466Z,12.17
2018-03-23T17:51:58.388Z,13.40
2018-03-23T17:54:24.703Z,11.80
2018-03-23T17:56:51.202Z,12.30
2018-03-23T17:59:20.056Z,12.10
2018-03-23T18:01:46.347Z,11.53
2018-03-23T18:04:13.582Z,12.13
2018-03-23T18:06:41.563Z,10.37
2018-03-23T18:09:10.661Z,11.00
2018-03-23T18:11:38.226Z,12.30
2018-03-23T18:14:06.258Z,10.67
2018-03-23T18:16:32.558Z,11.70
2018-03-23T18:28:44.570Z,10.07
2018-03-23T18:40:55.862Z,10.53
2018-03-23T18:43:22.314Z,11.40
2018-03-23T18:45:48.578Z,11.30
2018-03-23T18:48:15.676Z,11.97
2018-03-23T18:50:41.903Z,11.17
2018-03-23T18:53:09.383Z,11.23
2018-03-23T18:55:35.733Z,12.00
2018-03-23T18:58:05.787Z,12.43
2018-03-23T19:00:34.435Z,12.17
2018-03-23T19:03:02.114Z,12.83
2018-03-23T19:05:30.679Z,13.87
2018-03-23T19:07:59.741Z,12.30
2018-03-23T19:10:26.060Z,12.63
2018-03-23T19:12:52.339Z,13.17
2018-03-23T19:15:18.648Z,12.13
2018-03-23T19:17:45.945Z,12.60
2018-03-23T19:20:13.002Z,11.60
2018-03-23T19:22:40.108Z,11.57
2018-03-23T19:25:06.371Z,13.77
2018-03-23T19:27:34.317Z,12.13
2018-03-23T19:30:00.714Z,11.37
2018-03-23T19:32:27.560Z,11.67
2018-03-23T19:34:53.866Z,12.20
2018-03-23T19:37:20.940Z,12.70
2018-03-23T19:39:47.276Z,12.47
2018-03-23T19:42:13.804Z,13.10
2018-03-23T19:44:40.925Z,13.10
2018-03-23T19:47:10.154Z,12.80
2018-03-23T19:49:38.177Z,11.57
2018-03-23T19:52:05.404Z,10.97
2018-03-23T19:54:31.639Z,12.50
2018-03-23T19:56:58.633Z,12.73
2018-03-23T19:59:26.668Z,13.53
2018-03-23T20:01:52.941Z,12.77
2018-03-23T20:04:19.251Z,13.80
2018-03-23T20:06:47.286Z,11.97
2018-03-23T20:09:14.644Z,13.23
2018-03-23T20:11:42.603Z,13.47
2018-03-23T20:14:10.509Z,13.00
2018-03-23T20:16:38.369Z,14.83
2018-03-23T20:19:06.529Z,12.60
2018-03-23T20:21:34.397Z,13.27
2018-03-23T20:24:06.560Z,13.17
2018-03-23T20:26:32.852Z,12.00
2018-03-23T20:29:00.527Z,11.83
2018-03-23T20:31:33.108Z,11.63
2018-03-23T20:34:00.773Z,11.43
2018-03-23T20:36:27.218Z,12.67
2018-03-23T20:38:54.440Z,10.87
2018-03-23T20:41:21.812Z,10.57
2018-03-23T20:43:48.272Z,10.87
2018-03-23T20:46:14.573Z,12.23
2018-03-23T20:48:40.913Z,11.10
2018-03-23T20:51:09.394Z,13.20
2018-03-23T20:53:35.756Z,11.73
2018-03-23T20:56:02.105Z,12.57
2018-03-23T20:58:29.816Z,12.60
2018-03-23T21:00:57.679Z,14.50
2018-03-23T21:03:24.668Z,11.40
2018-03-23T21:05:51.763Z,12.33
2018-03-23T21:08:18.212Z,11.90
2018-03-23T21:10:44.475Z,13.07
2018-03-23T21:13:11.310Z,10.20
2018-03-23T21:15:39.129Z,10.93
2018-03-23T21:18:06.118Z,11.30
2018-03-23T21:20:32.389Z,11.10
2018-03-23T21:22:59.485Z,10.57
2018-03-23T21:25:26.993Z,11.60
2018-03-23T21:27:53.641Z,11.80
2018-03-23T21:30:20.642Z,12.03
2018-03-23T21:32:47.033Z,11.97
2018-03-23T21:35:15.183Z,12.50
2018-03-23T21:47:26.664Z,11.63
2018-03-23T21:49:53.081Z,12.20
2018-03-23T21:52:20.268Z,11.33
2018-03-23T21:54:46.650Z,11.40
2018-03-23T21:57:14.111Z,11.53
2018-03-23T21:59:40.391Z,11.73
2018-03-23T22:02:09.263Z,12.47
2018-03-23T22:04:36.301Z,11.67
2018-03-23T22:07:02.928Z,11.33
2018-03-23T22:09:29.607Z,13.70
2018-03-23T22:11:57.194Z,12.60
2018-03-23T22:14:28.472Z,12.30
2018-03-23T22:16:56.191Z,12.00
2018-03-23T22:19:25.166Z,12.90
2018-03-23T22:21:52.480Z,13.77
2018-03-23T22:24:20.363Z,14.10
2018-03-23T22:26:46.653Z,12.80
2018-03-23T22:29:15.073Z,12.57
2018-03-23T22:31:45.428Z,12.27
2018-03-23T22:34:12.852Z,11.67
2018-03-23T22:36:41.886Z,14.77
2018-03-23T22:39:09.916Z,12.20
2018-03-23T22:41:36.902Z,13.23
2018-03-23T22:44:04.513Z,12.10
2018-03-23T22:46:31.600Z,13.00
2018-03-23T22:48:58.827Z,15.40
2018-03-23T22:51:25.642Z,15.00
2018-03-23T22:53:51.873Z,12.53
2018-03-23T22:56:18.238Z,13.60
2018-03-23T22:58:45.890Z,11.93
2018-03-23T23:01:13.729Z,12.73
2018-03-23T23:03:40.859Z,13.23
2018-03-23T23:06:07.953Z,12.90
2018-03-23T23:08:34.458Z,11.90
2018-03-23T23:11:01.717Z,13.17
2018-03-23T23:13:28.089Z,11.47
2018-03-23T23:15:56.465Z,11.70
2018-03-23T23:18:23.937Z,13.53
2018-03-23T23:20:50.182Z,12.47
2018-03-23T23:23:17.987Z,13.70
2018-03-23T23:25:45.092Z,14.73
2018-03-23T23:28:11.357Z,13.83
2018-03-23T23:30:37.627Z,14.40
2018-03-23T23:42:44.379Z,13.43
2018-03-23T23:45:10.873Z,14.00
2018-03-23T23:47:37.328Z,13.02
2018-03-23T23:50:05.459Z,12.97
2018-03-23T23:52:32.069Z,15.27
2018-03-23T23:54:59.438Z,13.40
2018-03-23T23:57:26.729Z,12.87
2018-03-23T23:59:53.635Z,13.30
